Time;durP1;ratioP1;P1;durP2;ratioP2;P2;SDS_P1;SDS_P2;PMS_P1;PMS_P2;Temp;Humidity;BMP_temperature;BMP_pressure;BME280_temperature;BME280_humidity;BME280_pressure;Samples;Min_cycle;Max_cycle;Signal;HPM_P1;HPM_P2
2021/07/10 00:02:03;;;;;;;10.90;6.25;;;;;;;22.22;56.97;94044.88;6171783;23;20012;-84
2021/07/10 00:04:28;;;;;;;9.27;6.55;;;;;;;22.35;56.24;94055.13;6199250;23;20012;-83
2021/07/10 00:06:54;;;;;;;9.18;6.75;;;;;;;22.25;56.95;94046.84;6172388;23;20380;-85
2021/07/10 00:09:20;;;;;;;7.05;6.35;;;;;;;22.20;57.17;94049.81;6174308;23;20009;-86
2021/07/10 00:11:46;;;;;;;13.55;7.70;;;;;;;22.04;57.16;94026.47;6172474;23;20517;-85
2021/07/10 00:14:12;;;;;;;7.43;6.32;;;;;;;22.21;57.19;94043.31;6201039;23;20094;-85
2021/07/10 00:16:38;;;;;;;10.45;6.85;;;;;;;22.29;56.74;94039.63;6172937;23;20560;-85
2021/07/10 00:19:03;;;;;;;9.95;7.53;;;;;;;22.10;57.36;94020.78;6172163;23;20423;-84
2021/07/10 00:21:29;;;;;;;8.30;6.75;;;;;;;22.02;57.93;94044.09;6203146;23;20431;-85
2021/07/10 00:23:54;;;;;;;7.97;7.18;;;;;;;21.91;57.94;94018.84;6170350;23;20025;-85
2021/07/10 00:26:20;;;;;;;8.52;7.63;;;;;;;21.83;59.46;94034.09;6198899;23;20804;-85
2021/07/10 00:28:45;;;;;;;7.60;6.85;;;;;;;21.91;59.20;94032.31;6198353;23;20029;-85
2021/07/10 00:31:12;;;;;;;9.48;6.78;;;;;;;21.86;58.60;94011.84;6171570;23;20016;-85
2021/07/10 00:33:38;;;;;;;8.85;6.82;;;;;;;21.90;59.01;94039.59;6197984;23;20015;-85
2021/07/10 00:36:03;;;;;;;8.68;6.72;;;;;;;21.70;59.24;94005.00;6199711;23;20398;-85
2021/07/10 00:38:29;;;;;;;9.13;7.25;;;;;;;21.72;59.59;94010.78;6204195;23;20066;-85
2021/07/10 00:40:54;;;;;;;13.93;7.15;;;;;;;21.79;59.67;94030.56;6200943;23;20008;-85
2021/07/10 00:43:20;;;;;;;7.50;6.80;;;;;;;21.42;60.44;93997.06;6198873;23;20104;-85
2021/07/10 00:45:47;;;;;;;10.73;6.90;;;;;;;21.42;60.92;93989.00;6211522;23;20020;-85
2021/07/10 00:48:13;;;;;;;9.45;6.63;;;;;;;21.74;60.31;94028.13;6172261;23;20009;-86
2021/07/10 00:50:38;;;;;;;9.75;6.50;;;;;;;21.47;60.39;93992.22;6200859;23;20027;-85
2021/07/10 00:53:04;;;;;;;9.00;6.53;;;;;;;21.59;60.79;94023.59;6197954;23;20027;-86
2021/07/10 00:55:32;;;;;;;10.98;6.78;;;;;;;21.56;61.12;94018.91;6173412;23;20416;-85
2021/07/10 00:58:00;;;;;;;7.88;7.00;;;;;;;21.43;61.87;94022.84;6208805;23;20032;-85
2021/07/10 01:00:26;;;;;;;7.60;6.90;;;;;;;21.29;61.79;94007.19;6204429;23;20015;-86
2021/07/10 01:02:54;;;;;;;9.32;7.70;;;;;;;21.26;62.27;94017.88;6171908;23;20059;-85
2021/07/10 01:05:25;;;;;;;8.73;7.82;;;;;;;21.27;61.92;94005.97;6201182;23;20016;-85
2021/07/10 01:07:51;;;;;;;7.93;6.85;;;;;;;21.19;62.49;93999.66;6206940;23;20100;-85
2021/07/10 01:10:17;;;;;;;8.30;7.07;;;;;;;21.13;62.56;93991.09;6209244;23;20040;-85
2021/07/10 01:12:45;;;;;;;8.35;7.15;;;;;;;21.12;62.41;93994.06;6209539;23;20458;-85
2021/07/10 01:15:18;;;;;;;15.23;7.88;;;;;;;21.33;61.90;93980.38;6190167;23;20108;-85
2021/07/10 01:17:46;;;;;;;8.38;7.32;;;;;;;21.27;61.72;93965.63;6172816;23;20471;-86
2021/07/10 01:20:14;;;;;;;7.57;6.88;;;;;;;21.12;62.71;93964.50;6174227;23;20017;-85
2021/07/10 01:22:41;;;;;;;9.75;7.45;;;;;;;20.82;62.31;93923.94;6199466;23;20016;-86
2021/07/10 01:25:10;;;;;;;7.25;6.50;;;;;;;21.23;62.72;93988.97;6208563;23;20000;-86
2021/07/10 01:27:36;;;;;;;8.63;6.63;;;;;;;20.84;63.41;93964.66;6212866;23;20005;-86
2021/07/10 01:30:07;;;;;;;9.85;7.53;;;;;;;20.81;63.19;93954.63;6197414;23;20092;-86
2021/07/10 01:32:35;;;;;;;10.10;7.43;;;;;;;20.97;63.04;93971.47;6202009;23;20025;-86
2021/07/10 01:35:01;;;;;;;8.65;6.78;;;;;;;20.87;62.26;93969.31;6173403;23;20111;-86
2021/07/10 01:37:26;;;;;;;11.30;6.72;;;;;;;20.89;62.32;93977.03;6197765;23;20526;-85
2021/07/10 01:39:54;;;;;;;9.27;7.30;;;;;;;20.74;62.62;93954.44;6208426;23;20278;-87
2021/07/10 01:42:20;;;;;;;7.47;6.78;;;;;;;20.90;62.54;93967.88;6213861;23;20012;-87
2021/07/10 01:44:47;;;;;;;8.20;6.63;;;;;;;21.10;62.38;93978.31;6198228;23;20752;-86
2021/07/10 01:47:13;;;;;;;7.70;6.20;;;;;;;21.06;62.03;93965.94;6173398;23;20026;-87
2021/07/10 01:49:38;;;;;;;8.27;6.50;;;;;;;20.90;61.46;93935.63;6170795;23;20111;-86
2021/07/10 01:52:04;;;;;;;8.55;6.88;;;;;;;21.04;61.69;93957.44;6208432;23;20011;-87
2021/07/10 01:54:30;;;;;;;8.02;6.75;;;;;;;20.82;61.55;93920.47;6177417;23;20004;-87
2021/07/10 01:56:56;;;;;;;7.90;6.45;;;;;;;21.06;61.64;93961.31;6200637;23;20513;-88
2021/07/10 01:59:21;;;;;;;7.70;6.95;;;;;;;20.98;62.57;93958.81;6197874;23;20084;-87
2021/07/10 02:01:48;;;;;;;8.52;6.35;;;;;;;20.92;63.01;93962.91;6196917;23;20477;-88
2021/07/10 02:04:15;;;;;;;9.23;7.28;;;;;;;20.92;62.92;93961.00;6199236;23;20020;-86
2021/07/10 02:06:42;;;;;;;6.68;6.07;;;;;;;20.83;62.91;93946.19;6211340;23;20004;-87
2021/07/10 02:09:09;;;;;;;9.88;7.55;;;;;;;20.77;63.34;93947.59;6199947;23;20048;-87
2021/07/10 02:11:35;;;;;;;8.32;7.38;;;;;;;20.90;63.51;93974.03;6200518;23;20091;-84
2021/07/10 02:14:00;;;;;;;7.32;6.60;;;;;;;20.74;63.16;93941.00;6171181;23;20056;-87
2021/07/10 02:16:25;;;;;;;8.77;6.88;;;;;;;21.01;62.88;93977.72;6201201;23;20013;-86
2021/07/10 02:18:51;;;;;;;8.00;7.20;;;;;;;20.78;62.94;93941.88;6207961;23;20039;-86
2021/07/10 02:21:16;;;;;;;10.68;6.85;;;;;;;21.02;62.07;93981.97;6211687;23;20392;-86
2021/07/10 02:23:45;;;;;;;16.58;7.38;;;;;;;20.78;62.61;93949.94;6198155;23;20016;-87
2021/07/10 02:26:10;;;;;;;7.55;6.85;;;;;;;20.90;63.15;93982.06;6196210;23;20463;-86
2021/07/10 02:28:36;;;;;;;8.23;7.18;;;;;;;20.93;62.89;93986.75;6206217;23;20024;-87
2021/07/10 02:31:02;;;;;;;9.90;7.18;;;;;;;20.88;62.96;93981.63;6197540;23;20572;-87
2021/07/10 02:33:27;;;;;;;11.77;7.68;;;;;;;20.89;62.91;93972.44;6176365;23;20011;-87
2021/07/10 02:35:55;;;;;;;8.27;6.43;;;;;;;20.90;61.67;93949.06;6200493;23;20016;-86
2021/07/10 02:38:23;;;;;;;9.05;6.65;;;;;;;20.77;61.32;93929.56;6198681;23;20142;-87
2021/07/10 02:40:52;;;;;;;7.50;6.70;;;;;;;20.75;61.13;93937.22;6190839;23;20024;-86
2021/07/10 02:43:17;;;;;;;10.98;7.00;;;;;;;21.07;61.29;93984.38;6174346;23;20020;-87
2021/07/10 02:45:43;;;;;;;10.57;6.53;;;;;;;21.12;61.28;93994.84;6200377;23;20024;-87
2021/07/10 02:48:11;;;;;;;12.52;6.93;;;;;;;20.92;60.55;93958.31;6196711;23;20083;-87
2021/07/10 02:50:39;;;;;;;7.53;6.68;;;;;;;20.60;61.44;93932.63;6198171;23;20050;-87
2021/07/10 02:53:05;;;;;;;7.80;6.93;;;;;;;20.71;60.51;93952.47;6201945;23;20016;-87
2021/07/10 02:55:32;;;;;;;9.43;7.38;;;;;;;20.79;59.73;93951.50;6200836;23;20016;-87
2021/07/10 02:57:58;;;;;;;7.65;6.28;;;;;;;20.78;59.29;93960.66;6199413;23;20008;-87
2021/07/10 03:00:27;;;;;;;12.88;6.85;;;;;;;20.67;59.88;93932.81;6201266;23;20036;-87
2021/07/10 03:02:54;;;;;;;7.20;6.45;;;;;;;20.71;60.81;93955.94;6201079;23;20388;-85
2021/07/10 03:05:20;;;;;;;8.27;6.88;;;;;;;20.70;61.06;93953.59;6200089;23;20460;-87
2021/07/10 03:07:45;;;;;;;8.38;6.55;;;;;;;20.90;61.18;93979.38;6199535;23;20028;-87
2021/07/10 03:10:18;;;;;;;7.78;6.97;;;;;;;21.12;60.85;93986.78;6200034;23;20095;-87
2021/07/10 03:12:43;;;;;;;9.40;6.15;;;;;;;21.14;60.03;93984.59;6174310;23;20008;-87
2021/07/10 03:15:10;;;;;;;12.48;6.32;;;;;;;21.08;60.57;93983.25;6199926;23;20012;-87
2021/07/10 03:17:36;;;;;;;9.50;6.60;;;;;;;21.09;60.30;93984.03;6200595;23;20430;-87
2021/07/10 03:20:04;;;;;;;7.88;6.45;;;;;;;21.00;60.23;93965.44;6179697;23;20023;-87
2021/07/10 03:22:30;;;;;;;7.05;6.35;;;;;;;21.06;59.87;93966.69;6197578;23;20095;-86
2021/07/10 03:24:55;;;;;;;6.45;5.72;;;;;;;21.12;59.13;93949.19;6204176;23;20091;-86
2021/07/10 03:27:21;;;;;;;7.85;6.28;;;;;;;21.41;58.06;93936.38;6210792;23;20416;-86
2021/07/10 03:29:47;;;;;;;8.45;7.60;;;;;;;21.82;57.79;93977.94;6171615;23;20027;-86
2021/07/10 03:32:12;;;;;;;8.93;7.65;;;;;;;21.77;58.80;93973.63;6171644;23;20016;-86
2021/07/10 03:34:38;;;;;;;13.13;10.60;;;;;;;21.98;57.83;93952.56;6171451;23;20017;-87
2021/07/10 03:37:03;;;;;;;25.08;18.83;;;;;;;22.23;57.13;93957.63;6192988;23;20000;-86
2021/07/10 03:39:29;;;;;;;23.60;19.23;;;;;;;22.70;55.63;93973.41;6210817;23;20016;-86
2021/07/10 03:41:54;;;;;;;20.75;15.65;;;;;;;22.80;55.28;93970.94;6199664;23;20414;-87
2021/07/10 03:44:21;;;;;;;14.43;11.63;;;;;;;23.01;54.33;93970.50;6168516;23;20021;-87
2021/07/10 03:46:47;;;;;;;15.23;12.75;;;;;;;23.28;53.65;93963.16;6197357;23;20510;-87
2021/07/10 03:49:13;;;;;;;14.63;10.05;;;;;;;23.64;52.86;93976.03;6207434;23;20028;-87
2021/07/10 03:51:38;;;;;;;14.32;10.63;;;;;;;23.86;52.45;93962.78;6208850;23;20019;-87
2021/07/10 03:54:04;;;;;;;11.93;10.15;;;;;;;24.11;51.46;93951.13;6198388;23;20338;-87
2021/07/10 03:56:30;;;;;;;12.15;9.10;;;;;;;24.62;50.67;93976.75;6171844;23;20481;-87
2021/07/10 03:58:56;;;;;;;11.10;8.02;;;;;;;24.68;49.76;93935.47;6199450;23;20013;-87
2021/07/10 04:01:21;;;;;;;8.68;7.72;;;;;;;24.99;48.53;93926.09;6205796;23;20012;-87
2021/07/10 04:03:47;;;;;;;9.02;7.70;;;;;;;25.63;46.17;93978.69;6197894;23;20001;-86
2021/07/10 04:06:12;;;;;;;9.48;6.50;;;;;;;25.79;46.88;93960.22;6200425;23;20025;-87
2021/07/10 04:08:38;;;;;;;6.75;5.97;;;;;;;25.77;45.42;93921.13;6196072;23;20440;-86
2021/07/10 04:11:04;;;;;;;5.88;5.30;;;;;;;26.09;45.77;93934.78;6167797;23;20026;-86
2021/07/10 04:13:29;;;;;;;7.85;5.75;;;;;;;26.26;44.06;93918.59;6196832;23;20013;-87
2021/07/10 04:15:55;;;;;;;4.88;4.40;;;;;;;26.48;42.62;93907.78;6196861;23;20088;-87
2021/07/10 04:18:21;;;;;;;7.38;5.07;;;;;;;26.55;42.44;93913.97;6199280;23;20494;-87
2021/07/10 04:20:46;;;;;;;8.00;5.25;;;;;;;26.91;42.38;93935.72;6196509;23;20020;-87
2021/07/10 04:23:11;;;;;;;11.45;4.97;;;;;;;27.18;41.95;93934.13;6168628;23;20080;-87
2021/07/10 04:25:37;;;;;;;8.00;5.90;;;;;;;27.52;40.76;93942.63;6199563;23;20332;-87
2021/07/10 04:28:03;;;;;;;8.13;4.43;;;;;;;27.52;40.57;93913.53;6197949;23;20060;-87
2021/07/10 04:30:32;;;;;;;5.47;4.88;;;;;;;27.88;40.47;93933.19;6199058;23;20015;-87
2021/07/10 04:32:58;;;;;;;7.95;5.32;;;;;;;27.47;40.73;93905.75;6197190;23;20017;-87
2021/07/10 04:35:23;;;;;;;4.47;4.05;;;;;;;28.45;38.75;93949.22;6170735;23;20017;-85
2021/07/10 04:37:49;;;;;;;4.78;4.13;;;;;;;28.71;37.82;93929.66;6198149;23;20025;-87
2021/07/10 04:40:14;;;;;;;4.95;3.72;;;;;;;28.79;37.04;93898.50;6195190;23;20435;-87
2021/07/10 04:42:41;;;;;;;7.45;4.03;;;;;;;28.81;37.46;93955.25;6174524;23;20138;-86
2021/07/10 04:45:11;;;;;;;5.97;4.90;;;;;;;29.26;37.18;93926.09;6187337;23;20052;-87
2021/07/10 04:47:37;;;;;;;7.93;3.97;;;;;;;29.79;36.04;93949.28;6166530;23;20024;-85
2021/07/10 04:50:05;;;;;;;6.13;4.43;;;;;;;30.24;35.18;93945.28;6163474;23;20013;-85
2021/07/10 04:52:30;;;;;;;5.85;4.05;;;;;;;30.44;34.37;93932.53;6190357;23;20044;-85
2021/07/10 04:54:56;;;;;;;7.93;3.88;;;;;;;30.73;33.55;93941.09;6162997;23;20460;-87
2021/07/10 04:57:24;;;;;;;4.82;4.15;;;;;;;31.30;33.02;93959.31;6169647;23;20055;-88
2021/07/10 04:59:53;;;;;;;6.65;4.55;;;;;;;31.47;32.55;93914.53;6162426;23;20335;-88
2021/07/10 05:02:21;;;;;;;8.27;4.22;;;;;;;31.95;31.97;93915.97;6163103;23;20333;-85
2021/07/10 05:04:47;;;;;;;7.00;3.90;;;;;;;32.13;31.57;93930.84;6166299;23;20043;-83
2021/07/10 05:07:12;;;;;;;7.65;3.83;;;;;;;32.71;31.03;93963.22;6164884;23;20496;-84
2021/07/10 05:09:38;;;;;;;7.07;3.80;;;;;;;32.10;31.54;93966.44;6170341;23;20001;-84
2021/07/10 05:12:06;;;;;;;11.30;4.00;;;;;;;32.34;31.53;93939.78;6165312;23;20027;-84
2021/07/10 05:14:33;;;;;;;7.90;4.10;;;;;;;32.93;30.49;93959.59;6168111;23;20529;-84
2021/07/10 05:16:58;;;;;;;4.65;3.58;;;;;;;33.38;29.66;93942.50;6164504;23;20013;-84
2021/07/10 05:19:23;;;;;;;6.30;4.00;;;;;;;33.47;30.12;93961.81;6165968;23;20009;-84
2021/07/10 05:21:49;;;;;;;7.82;3.83;;;;;;;33.45;29.47;93964.22;6167228;23;20439;-84
2021/07/10 05:24:14;;;;;;;8.68;3.67;;;;;;;33.14;29.97;93972.00;6183249;23;20636;-84
2021/07/10 05:26:40;;;;;;;8.30;4.35;;;;;;;32.71;30.77;93941.34;6168692;23;20153;-84
2021/07/10 05:29:06;;;;;;;10.85;4.22;;;;;;;32.88;30.51;93949.16;6167992;23;20025;-82
2021/07/10 05:31:31;;;;;;;5.93;3.75;;;;;;;32.58;30.83;93971.31;6150176;23;20510;-83
2021/07/10 05:33:57;;;;;;;4.53;4.00;;;;;;;32.13;30.81;93957.41;6147161;23;20035;-83
2021/07/10 05:36:23;;;;;;;4.78;3.22;;;;;;;32.02;31.33;93927.53;6172580;23;20076;-83
2021/07/10 05:38:48;;;;;;;10.43;3.70;;;;;;;32.54;31.30;93946.00;6152718;23;20021;-84
2021/07/10 05:41:13;;;;;;;6.63;3.65;;;;;;;32.79;30.57;93962.66;6168284;23;20027;-84
2021/07/10 05:43:39;;;;;;;6.80;3.42;;;;;;;32.73;30.38;93958.88;6164973;23;20363;-84
2021/07/10 05:46:05;;;;;;;6.72;3.63;;;;;;;33.12;29.49;93947.00;6188689;23;20016;-84
2021/07/10 05:48:30;;;;;;;9.98;3.20;;;;;;;33.02;29.42;93957.03;6208593;23;20035;-83
2021/07/10 05:50:56;;;;;;;11.52;3.75;;;;;;;33.23;29.45;93976.91;6171302;23;20023;-84
2021/07/10 05:53:21;;;;;;;7.53;3.00;;;;;;;33.39;29.16;93960.44;6198731;23;20054;-83
2021/07/10 05:55:47;;;;;;;8.32;2.92;;;;;;;33.51;28.73;93966.00;6197374;23;20016;-84
2021/07/10 05:58:14;;;;;;;4.22;3.78;;;;;;;33.04;29.38;93929.97;6197083;23;20012;-83
2021/07/10 06:00:40;;;;;;;4.18;2.95;;;;;;;33.51;29.12;93952.31;6200568;23;20327;-84
2021/07/10 06:03:06;;;;;;;5.93;3.28;;;;;;;33.75;28.60;93977.56;6199125;23;20439;-83
2021/07/10 06:05:32;;;;;;;4.88;3.50;;;;;;;33.59;28.92;93963.84;6128218;23;20445;-84
2021/07/10 06:08:00;;;;;;;8.63;3.20;;;;;;;33.78;29.02;93978.66;6178072;23;20074;-84
2021/07/10 06:10:25;;;;;;;5.30;2.70;;;;;;;33.62;28.72;93973.97;6198240;23;20103;-84
2021/07/10 06:12:51;;;;;;;8.00;3.53;;;;;;;33.72;28.46;93966.69;6178067;23;20444;-82
2021/07/10 06:15:17;;;;;;;5.75;3.50;;;;;;;33.81;28.32;93986.78;6173622;23;20008;-89
2021/07/10 06:17:51;;;;;;;4.15;2.92;;;;;;;33.70;28.65;93960.84;6127129;23;20043;-85
2021/07/10 06:20:18;;;;;;;13.83;3.63;;;;;;;33.83;28.88;93989.84;6166631;23;20017;-83
2021/07/10 06:22:47;;;;;;;7.32;2.85;;;;;;;33.44;28.61;93952.47;6169551;23;20048;-85
2021/07/10 06:25:14;;;;;;;8.70;3.67;;;;;;;33.28;28.90;93949.75;6163684;23;20009;-85
2021/07/10 06:27:40;;;;;;;6.05;3.50;;;;;;;33.93;28.71;93983.31;6169782;23;20005;-84
2021/07/10 06:30:08;;;;;;;5.78;3.25;;;;;;;34.40;28.30;93993.81;6169537;23;20060;-83
2021/07/10 06:32:33;;;;;;;10.25;3.25;;;;;;;34.21;28.87;93970.06;6171285;23;20418;-83
2021/07/10 06:34:59;;;;;;;10.70;3.55;;;;;;;34.35;28.01;93988.88;6168370;23;20053;-84
2021/07/10 06:37:25;;;;;;;6.85;3.35;;;;;;;33.96;28.73;93972.69;6173167;23;20021;-83
2021/07/10 06:39:50;;;;;;;6.72;3.00;;;;;;;34.59;27.55;93989.34;6168632;23;20279;-82
2021/07/10 06:42:18;;;;;;;3.88;2.92;;;;;;;34.59;27.57;93970.91;6169413;23;20030;-83
2021/07/10 06:44:47;;;;;;;6.78;3.72;;;;;;;34.99;27.92;93995.22;6171771;23;20017;-83
2021/07/10 06:47:15;;;;;;;4.32;3.13;;;;;;;35.33;27.70;93992.59;6196598;23;20020;-84
2021/07/10 06:49:42;;;;;;;7.28;3.15;;;;;;;35.38;27.50;93980.25;6148401;23;20016;-84
2021/07/10 06:52:08;;;;;;;4.55;3.15;;;;;;;35.20;26.85;93956.09;6169124;23;20016;-84
2021/07/10 06:54:33;;;;;;;7.32;3.30;;;;;;;36.17;25.88;93999.19;6201505;23;20031;-83
2021/07/10 06:56:59;;;;;;;6.50;3.70;;;;;;;35.91;26.17;93976.50;6171143;23;20037;-85
2021/07/10 06:59:24;;;;;;;10.00;4.30;;;;;;;35.49;26.45;93958.66;6169497;23;20410;-85
2021/07/10 07:01:50;;;;;;;7.55;3.20;;;;;;;35.82;26.36;94000.41;6170185;23;20102;-84
2021/07/10 07:04:18;;;;;;;6.75;3.28;;;;;;;36.37;25.95;93988.63;6141187;23;20016;-84
2021/07/10 07:06:44;;;;;;;8.73;3.33;;;;;;;36.77;24.64;93985.19;6144876;23;20013;-84
2021/07/10 07:09:10;;;;;;;3.47;3.08;;;;;;;36.57;25.48;93998.53;6165833;23;20017;-84
2021/07/10 07:11:35;;;;;;;4.82;3.20;;;;;;;36.63;25.29;93977.47;6145963;23;20017;-83
2021/07/10 07:14:01;;;;;;;7.95;3.13;;;;;;;37.42;24.47;93962.19;6165819;23;20384;-85
2021/07/10 07:16:27;;;;;;;8.52;3.42;;;;;;;38.03;23.95;93969.47;6175798;23;20063;-84
2021/07/10 07:18:52;;;;;;;5.22;3.30;;;;;;;38.34;23.74;93992.16;6173701;23;20001;-84
2021/07/10 07:21:18;;;;;;;10.60;3.72;;;;;;;38.23;24.10;93991.09;6171539;23;20016;-83
2021/07/10 07:23:44;;;;;;;9.73;3.25;;;;;;;38.31;23.59;93995.06;6166813;23;20048;-84
2021/07/10 07:26:09;;;;;;;6.15;3.08;;;;;;;38.11;24.09;93963.22;6167613;23;20491;-84
2021/07/10 07:28:36;;;;;;;8.35;3.17;;;;;;;38.06;23.70;93969.34;6168151;23;20073;-83
2021/07/10 07:31:06;;;;;;;5.07;3.08;;;;;;;38.43;23.67;93980.31;6165223;23;20054;-83
2021/07/10 07:33:31;;;;;;;6.05;3.75;;;;;;;38.68;24.01;93993.81;6177346;23;20020;-84
2021/07/10 07:35:57;;;;;;;4.35;3.60;;;;;;;38.78;23.30;93995.31;6161117;23;20017;-84
2021/07/10 07:38:23;;;;;;;5.05;2.70;;;;;;;38.41;23.15;93953.19;6163138;23;20092;-85
2021/07/10 07:40:49;;;;;;;11.13;3.58;;;;;;;38.76;23.67;93983.94;6165917;23;20351;-86
2021/07/10 07:43:14;;;;;;;6.90;2.83;;;;;;;38.32;24.09;93988.31;6170616;23;20016;-84
2021/07/10 07:45:40;;;;;;;10.63;3.20;;;;;;;38.48;23.85;93979.72;6198708;23;20017;-84
2021/07/10 07:48:06;;;;;;;7.43;3.13;;;;;;;38.77;23.36;93979.97;6170850;23;20020;-84
2021/07/10 07:50:32;;;;;;;7.80;3.55;;;;;;;38.67;23.25;93948.06;6154859;23;20024;-86
2021/07/10 07:52:58;;;;;;;4.90;2.88;;;;;;;39.08;22.97;93976.19;6155507;23;20021;-84
2021/07/10 07:55:25;;;;;;;3.33;2.33;;;;;;;40.14;22.09;93990.31;6170366;23;20390;-83
2021/07/10 07:57:50;;;;;;;7.40;3.05;;;;;;;39.88;22.24;93981.00;6159117;23;20388;-85
2021/07/10 08:00:20;;;;;;;3.83;2.90;;;;;;;39.79;22.21;93973.50;6174364;23;20031;-85
2021/07/10 08:02:46;;;;;;;12.85;3.33;;;;;;;39.61;22.33;93990.97;6161395;23;20088;-85
2021/07/10 08:05:15;;;;;;;8.02;3.10;;;;;;;38.61;23.58;93941.63;6161514;23;20091;-83
2021/07/10 08:07:41;;;;;;;7.93;3.08;;;;;;;39.36;22.61;93958.25;6160307;23;20175;-83
2021/07/10 08:10:10;;;;;;;12.13;3.75;;;;;;;38.95;22.79;93960.56;6171598;23;21426;-86
2021/07/10 08:12:36;;;;;;;7.00;3.92;;;;;;;39.21;22.67;93965.69;6167421;23;20058;-85
2021/07/10 08:15:04;;;;;;;5.25;3.22;;;;;;;39.44;22.98;93969.75;6161484;23;20439;-85
2021/07/10 08:17:29;;;;;;;7.68;3.10;;;;;;;39.24;22.92;93945.41;6163889;23;20085;-85
2021/07/10 08:19:55;;;;;;;7.05;3.33;;;;;;;38.95;23.71;93968.88;6165048;23;20037;-84
2021/07/10 08:22:20;;;;;;;4.85;3.80;;;;;;;39.06;23.93;93965.59;6146090;23;20483;-85
2021/07/10 08:24:46;;;;;;;9.90;4.18;;;;;;;39.67;23.24;93986.34;6158361;23;20445;-86
2021/07/10 08:27:12;;;;;;;4.00;3.03;;;;;;;39.54;22.69;93968.47;6192274;23;20028;-86
2021/07/10 08:29:37;;;;;;;5.50;3.75;;;;;;;39.60;22.60;93970.09;6167058;23;20031;-83
2021/07/10 08:32:03;;;;;;;20.58;4.78;;;;;;;39.06;23.39;93970.34;6194330;23;20021;-85
2021/07/10 08:34:30;;;;;;;8.02;5.15;;;;;;;38.66;23.57;93971.38;6193054;23;20019;-84
2021/07/10 08:36:55;;;;;;;10.23;3.20;;;;;;;37.93;24.21;93976.97;6204121;23;20000;-86
2021/07/10 08:39:21;;;;;;;5.97;3.60;;;;;;;37.70;24.92;93967.31;6169814;23;20060;-83
2021/07/10 08:41:48;;;;;;;5.72;3.10;;;;;;;37.11;26.09;93976.81;6194952;23;20016;-84
2021/07/10 08:44:14;;;;;;;6.60;3.13;;;;;;;37.51;24.78;93964.94;6165369;23;20776;-84
2021/07/10 08:46:40;;;;;;;9.00;3.08;;;;;;;38.06;24.59;93966.56;6200111;23;20487;-86
2021/07/10 08:49:07;;;;;;;10.82;4.03;;;;;;;37.38;25.14;93947.78;6168948;23;20058;-85
2021/07/10 08:51:33;;;;;;;6.15;3.50;;;;;;;37.58;25.55;93964.69;6195890;23;20016;-82
2021/07/10 08:53:59;;;;;;;5.13;4.13;;;;;;;37.48;26.43;93960.38;6194852;23;20050;-82
2021/07/10 08:56:29;;;;;;;5.45;3.53;;;;;;;37.54;25.02;93975.09;6195228;23;20451;-83
2021/07/10 08:58:55;;;;;;;4.20;3.30;;;;;;;37.08;26.12;93966.69;6172919;23;20046;-83
2021/07/10 09:01:21;;;;;;;6.05;3.95;;;;;;;36.78;25.76;93972.97;6178516;23;20606;-84
2021/07/10 09:03:46;;;;;;;6.90;4.38;;;;;;;36.87;26.54;93950.97;6181302;23;20023;-83
2021/07/10 09:06:11;;;;;;;5.22;3.90;;;;;;;36.54;26.72;93961.66;6197350;23;20632;-83
2021/07/10 09:08:37;;;;;;;9.40;3.60;;;;;;;36.21;27.46;93955.81;6197607;23;20860;-83
2021/07/10 09:11:15;;;;;;;9.85;4.35;;;;;;;36.71;26.19;93956.72;6197045;23;20013;-85
2021/07/10 09:13:50;;;;;;;5.70;3.55;;;;;;;37.27;25.68;93951.75;6199830;23;20044;-84
2021/07/10 09:16:25;;;;;;;6.45;3.40;;;;;;;38.34;24.64;93959.03;6205798;23;20080;-84
2021/07/10 09:18:58;;;;;;;5.22;4.15;;;;;;;37.83;25.06;93952.63;6168828;23;20094;-83
2021/07/10 09:21:50;;;;;;;5.55;4.00;;;;;;;37.16;26.67;93962.44;6172044;23;20036;-86
2021/07/10 09:24:37;;;;;;;7.28;3.20;;;;;;;36.41;26.87;93958.97;6199053;23;20047;-81
2021/07/10 09:27:08;;;;;;;6.65;3.55;;;;;;;35.85;28.09;93963.75;6194875;23;20052;-83
2021/07/10 09:29:39;;;;;;;5.78;3.63;;;;;;;35.85;27.62;93966.50;6199441;23;20282;-83
2021/07/10 09:32:14;;;;;;;5.38;4.55;;;;;;;35.50;28.07;93963.75;6169891;23;20018;-82
2021/07/10 09:34:44;;;;;;;7.70;5.15;;;;;;;34.93;28.12;93961.28;6167489;23;20060;-86
2021/07/10 09:37:13;;;;;;;5.80;4.50;;;;;;;34.18;29.55;93954.47;6168800;23;20071;-82
2021/07/10 09:39:45;;;;;;;8.68;3.83;;;;;;;33.92;30.79;93945.34;6200009;23;20092;-82
2021/07/10 09:42:12;;;;;;;5.90;4.30;;;;;;;33.75;30.77;93928.22;6170419;23;20036;-82
2021/07/10 09:44:51;;;;;;;6.22;4.32;;;;;;;34.04;30.03;93954.84;6199334;23;20070;-83
2021/07/10 09:47:27;;;;;;;5.43;4.40;;;;;;;33.84;30.45;93944.81;6199381;23;20039;-87
2021/07/10 09:49:53;;;;;;;6.53;4.28;;;;;;;33.24;31.72;93948.31;6192635;23;20091;-83
2021/07/10 09:52:24;;;;;;;7.43;4.43;;;;;;;33.58;31.04;93951.34;6204379;23;20080;-84
2021/07/10 09:54:55;;;;;;;9.65;5.07;;;;;;;33.28;31.05;93949.00;6205894;23;20008;-80
2021/07/10 09:57:25;;;;;;;10.02;4.90;;;;;;;33.14;31.05;93941.88;6209015;23;20028;-84
2021/07/10 09:59:54;;;;;;;7.60;4.68;;;;;;;33.02;31.57;93937.09;6195852;23;20020;-85
2021/07/10 10:02:28;;;;;;;6.43;5.80;;;;;;;33.24;31.49;93942.81;6194220;23;20009;-83
2021/07/10 10:05:04;;;;;;;5.85;4.30;;;;;;;33.37;31.53;93930.00;6202196;23;20028;-83
2021/07/10 10:07:43;;;;;;;7.13;4.30;;;;;;;33.52;31.00;93917.47;6168290;23;20023;-84
2021/07/10 10:10:15;;;;;;;10.93;5.60;;;;;;;33.81;31.17;93931.97;6208026;23;20049;-82
2021/07/10 10:12:41;;;;;;;7.60;4.25;;;;;;;33.97;30.69;93927.59;6209300;23;20048;-84
2021/07/10 10:15:08;;;;;;;7.63;4.82;;;;;;;33.31;30.69;93928.97;6196038;23;20362;-83
2021/07/10 10:17:38;;;;;;;8.18;5.18;;;;;;;32.70;31.24;93934.31;6197361;23;20088;-85
2021/07/10 10:20:04;;;;;;;9.65;4.93;;;;;;;32.62;32.12;93922.75;6169513;23;20027;-84
2021/07/10 10:22:31;;;;;;;9.32;4.70;;;;;;;32.69;31.85;93917.16;6203514;23;20021;-83
2021/07/10 10:24:57;;;;;;;11.32;5.80;;;;;;;32.35;32.71;93922.97;6167884;23;20004;-82
2021/07/10 10:27:23;;;;;;;13.45;6.00;;;;;;;32.39;32.32;93881.88;6199130;23;20027;-84
2021/07/10 10:29:52;;;;;;;7.00;5.05;;;;;;;32.64;32.26;93923.13;6193581;23;20475;-84
2021/07/10 10:32:18;;;;;;;8.88;4.40;;;;;;;32.72;32.17;93926.47;6194008;23;20024;-83
2021/07/10 10:34:43;;;;;;;5.30;4.63;;;;;;;32.39;32.32;93931.09;6168250;23;20027;-83
2021/07/10 10:37:10;;;;;;;7.10;5.03;;;;;;;32.17;32.93;93934.28;6204018;23;20019;-88
2021/07/10 10:39:37;;;;;;;10.15;5.20;;;;;;;31.83;32.97;93931.81;6198674;23;20000;-86
2021/07/10 10:42:15;;;;;;;12.95;5.55;;;;;;;31.62;33.32;93929.47;6195314;23;20067;-85
2021/07/10 10:44:42;;;;;;;10.88;5.20;;;;;;;31.09;34.14;93937.81;6196999;23;20594;-86
2021/07/10 10:47:13;;;;;;;10.98;5.22;;;;;;;31.02;34.77;93933.25;6199278;23;20408;-87
2021/07/10 10:49:43;;;;;;;13.23;5.38;;;;;;;31.33;33.85;93921.00;6162669;23;20095;-86
2021/07/10 10:52:32;;;;;;;6.03;5.00;;;;;;;31.40;34.60;93926.34;6164877;23;20048;-83
2021/07/10 10:55:08;;;;;;;6.63;4.97;;;;;;;31.34;33.85;93928.00;6169378;23;20439;-85
2021/07/10 10:57:46;;;;;;;5.53;4.30;;;;;;;31.09;33.61;93910.50;6205922;23;20449;-87
2021/07/10 11:00:28;;;;;;;5.68;4.45;;;;;;;30.86;33.56;93887.47;6164349;23;20021;-85
2021/07/10 11:02:56;;;;;;;5.30;4.70;;;;;;;30.79;33.25;93916.84;6167616;23;20020;-86
2021/07/10 11:05:33;;;;;;;11.20;5.38;;;;;;;30.97;33.27;93915.38;6195195;23;20051;-82
2021/07/10 11:08:17;;;;;;;7.75;4.70;;;;;;;31.08;33.43;93907.03;6169750;23;20103;-82
2021/07/10 11:10:46;;;;;;;6.70;5.00;;;;;;;31.33;32.90;93888.25;6169536;23;20231;-87
2021/07/10 11:13:56;;;;;;;13.07;5.30;;;;;;;31.55;32.94;93901.50;6190102;23;20059;-82
2021/07/10 11:16:22;;;;;;;9.70;4.85;;;;;;;31.59;32.27;93902.22;6125090;23;20104;-82
2021/07/10 11:18:58;;;;;;;8.98;4.18;;;;;;;31.61;32.29;93903.38;6176338;23;20437;-82
2021/07/10 11:24:19;;;;;;;6.00;3.83;;;;;;;31.42;31.99;93885.72;6194653;23;20021;-84
2021/07/10 11:26:52;;;;;;;12.57;4.35;;;;;;;31.13;32.60;93890.16;6168066;23;20051;-85
2021/07/10 11:29:22;;;;;;;8.05;4.45;;;;;;;31.08;32.98;93881.69;6169650;23;20016;-85
2021/07/10 11:31:53;;;;;;;7.25;4.72;;;;;;;31.24;32.45;93868.91;6165499;23;20064;-84
2021/07/10 11:34:20;;;;;;;5.53;3.78;;;;;;;31.30;31.88;93872.69;6190970;23;20170;-85
2021/07/10 11:36:49;;;;;;;6.03;3.80;;;;;;;31.17;32.75;93877.25;6197760;23;20028;-85